createdAt,value
2023-01-21T00:00:17.982Z,0
2023-01-21T00:01:16.418Z,0
2023-01-21T00:02:16.880Z,0
2023-01-21T00:03:16.251Z,0
2023-01-21T00:04:16.257Z,0
2023-01-21T00:05:16.741Z,0
2023-01-21T00:06:16.337Z,0.109
2023-01-21T00:07:16.395Z,0.109
2023-01-21T00:08:16.176Z,0
2023-01-21T00:09:16.360Z,0
2023-01-21T00:10:16.738Z,0
2023-01-21T00:11:15.610Z,0
2023-01-21T00:12:16.552Z,0
2023-01-21T00:13:16.372Z,0
2023-01-21T00:14:16.476Z,0
2023-01-21T00:15:16.815Z,0
2023-01-21T00:16:16.814Z,0.109
2023-01-21T00:17:16.613Z,0
2023-01-21T00:18:16.583Z,0
2023-01-21T00:19:17.098Z,0
2023-01-21T00:20:16.951Z,0
2023-01-21T00:21:16.499Z,0
2023-01-21T00:22:16.566Z,0
2023-01-21T00:23:16.412Z,0
2023-01-21T00:24:16.440Z,0
2023-01-21T00:25:16.852Z,0
2023-01-21T00:26:16.814Z,0
2023-01-21T00:27:16.274Z,0
2023-01-21T00:28:16.767Z,0
2023-01-21T00:29:16.842Z,0
2023-01-21T00:30:17.469Z,0
2023-01-21T00:31:16.757Z,0
2023-01-21T00:32:16.221Z,0
2023-01-21T00:33:16.023Z,0
2023-01-21T00:34:16.795Z,0
2023-01-21T00:35:16.755Z,0
2023-01-21T00:36:16.579Z,0
2023-01-21T00:37:16.138Z,0
2023-01-21T00:38:16.027Z,0
2023-01-21T00:39:16.558Z,0
2023-01-21T00:40:16.597Z,0
2023-01-21T00:41:16.730Z,0
2023-01-21T00:42:16.494Z,0
2023-01-21T00:43:16.375Z,0
2023-01-21T00:44:16.519Z,0
2023-01-21T00:45:16.860Z,0
2023-01-21T00:46:16.489Z,0
2023-01-21T00:47:16.395Z,0
2023-01-21T00:48:16.345Z,0
2023-01-21T00:49:16.386Z,0
2023-01-21T00:50:16.711Z,0
2023-01-21T00:51:16.847Z,0
2023-01-21T00:52:16.477Z,0
2023-01-21T00:53:16.101Z,0.109
2023-01-21T00:54:16.194Z,0.119
2023-01-21T00:55:16.435Z,0.100
2023-01-21T00:56:16.288Z,0.109
2023-01-21T00:57:15.697Z,0.119
2023-01-21T00:58:16.202Z,0
2023-01-21T00:59:16.549Z,0
2023-01-21T01:00:17.542Z,0.109
2023-01-21T01:01:17.429Z,0
2023-01-21T01:02:16.656Z,0.109
2023-01-21T01:03:16.673Z,0.560
2023-01-21T01:04:16.310Z,0.449
2023-01-21T01:05:16.328Z,0.449
2023-01-21T01:06:16.035Z,0.560
2023-01-21T01:07:16.193Z,0.449
2023-01-21T01:08:16.361Z,0.560
2023-01-21T01:09:16.464Z,0.449
2023-01-21T01:10:16.601Z,0.449
2023-01-21T01:11:16.115Z,0.219
2023-01-21T01:12:16.355Z,0.340
2023-01-21T01:13:16.078Z,0.340
2023-01-21T01:14:16.398Z,0.340
2023-01-21T01:15:18.179Z,0.219
2023-01-21T01:16:16.199Z,0.340
2023-01-21T01:17:16.335Z,0.219
2023-01-21T01:18:16.107Z,0.340
2023-01-21T01:19:16.303Z,0.340
2023-01-21T01:20:16.936Z,0.219
2023-01-21T01:21:16.393Z,0.219
2023-01-21T01:22:16.170Z,0.340
2023-01-21T01:23:16.291Z,0.340
2023-01-21T01:24:16.299Z,0.340
2023-01-21T01:25:16.632Z,0.449
2023-01-21T01:26:16.222Z,0.680
2023-01-21T01:27:16.197Z,0.560
2023-01-21T01:28:16.105Z,0.449
2023-01-21T01:29:16.381Z,0.560
2023-01-21T01:30:16.795Z,0
2023-01-21T01:31:16.827Z,0.109
2023-01-21T01:32:16.717Z,0.109
2023-01-21T01:33:16.611Z,0.449
2023-01-21T01:34:16.565Z,0.219
2023-01-21T01:35:21.442Z,0.109
2023-01-21T01:36:16.248Z,0.109
2023-01-21T01:37:16.096Z,0.449
2023-01-21T01:38:16.234Z,0.109
2023-01-21T01:39:16.502Z,0.219
2023-01-21T01:40:16.705Z,0.109
2023-01-21T01:41:16.836Z,0.109
2023-01-21T01:42:16.461Z,0.109
2023-01-21T01:43:16.339Z,0.219
2023-01-21T01:44:16.247Z,0.560
2023-01-21T01:45:16.824Z,0
2023-01-21T01:46:16.719Z,0.109
2023-01-21T01:47:17.005Z,0.109
2023-01-21T01:48:16.256Z,0.449
2023-01-21T01:49:16.369Z,0.560
2023-01-21T01:50:16.487Z,0.340
2023-01-21T01:51:30.351Z,0.109
2023-01-21T01:52:16.521Z,0.219
2023-01-21T01:53:16.368Z,0.109
2023-01-21T01:54:16.168Z,0.219
2023-01-21T01:55:16.404Z,0.340
2023-01-21T01:56:16.390Z,0.219
2023-01-21T01:57:16.403Z,0
2023-01-21T01:58:16.182Z,0.109
2023-01-21T01:59:16.301Z,0
2023-01-21T02:00:17.255Z,0
2023-01-21T02:01:16.388Z,0.109
2023-01-21T02:02:16.360Z,0.109
2023-01-21T02:03:16.442Z,0
2023-01-21T02:04:16.605Z,0
2023-01-21T02:05:16.557Z,0
2023-01-21T02:06:16.328Z,0
2023-01-21T02:07:16.477Z,0.100
2023-01-21T02:08:16.384Z,0.109
2023-01-21T02:09:16.571Z,0.119
2023-01-21T02:10:16.927Z,0.100
2023-01-21T02:11:16.385Z,0
2023-01-21T02:12:16.357Z,0.109
2023-01-21T02:13:16.313Z,0.310
2023-01-21T02:14:16.501Z,0
2023-01-21T02:15:16.670Z,0.219
2023-01-21T02:16:16.553Z,0
2023-01-21T02:17:16.432Z,0.219
2023-01-21T02:18:16.540Z,0
2023-01-21T02:19:16.572Z,0
2023-01-21T02:20:17.058Z,0.109
2023-01-21T02:21:16.520Z,0
2023-01-21T02:22:16.420Z,0.219
2023-01-21T02:23:16.434Z,0
2023-01-21T02:24:16.334Z,0
2023-01-21T02:25:16.550Z,0
2023-01-21T02:26:16.313Z,0.109
2023-01-21T02:27:16.235Z,0.109
2023-01-21T02:28:16.127Z,0
2023-01-21T02:29:16.202Z,0.109
2023-01-21T02:30:17.122Z,0.109
2023-01-21T02:31:16.664Z,0
2023-01-21T02:32:16.249Z,0.109
2023-01-21T02:33:16.448Z,0.109
2023-01-21T02:34:16.283Z,0.219
2023-01-21T02:35:16.376Z,0
2023-01-21T02:36:16.305Z,0.109
2023-01-21T02:37:16.169Z,0.109
2023-01-21T02:38:16.855Z,0
2023-01-21T02:39:16.300Z,0
2023-01-21T02:40:16.864Z,0
2023-01-21T02:41:16.671Z,0
2023-01-21T02:42:16.986Z,0
2023-01-21T02:43:16.603Z,0
2023-01-21T02:44:16.768Z,0
2023-01-21T02:45:16.811Z,0
2023-01-21T02:46:16.682Z,0
2023-01-21T02:47:17.078Z,0
2023-01-21T02:48:16.257Z,0.109
2023-01-21T02:49:16.419Z,0
2023-01-21T02:50:16.747Z,0
2023-01-21T02:51:16.953Z,0
2023-01-21T02:52:16.588Z,0
2023-01-21T02:53:16.485Z,0
2023-01-21T02:54:16.618Z,0
2023-01-21T02:55:16.878Z,0
2023-01-21T02:56:16.260Z,0
2023-01-21T02:57:16.543Z,0
2023-01-21T02:58:16.373Z,0
2023-01-21T02:59:16.995Z,0
2023-01-21T03:00:17.434Z,0
2023-01-21T03:01:16.979Z,0
2023-01-21T03:02:16.984Z,0
2023-01-21T03:03:16.409Z,0
2023-01-21T03:04:16.621Z,0
2023-01-21T03:06:16.487Z,0.109
2023-01-21T03:07:16.837Z,0
2023-01-21T03:08:16.715Z,0
2023-01-21T03:09:16.793Z,0
2023-01-21T03:10:16.974Z,0
2023-01-21T03:11:16.278Z,0
2023-01-21T03:12:16.261Z,0
2023-01-21T03:13:16.312Z,0
2023-01-21T03:14:16.253Z,0
2023-01-21T03:15:16.940Z,0
2023-01-21T03:16:16.903Z,0
2023-01-21T03:17:17.009Z,0
2023-01-21T03:18:16.210Z,0
2023-01-21T03:19:16.476Z,0
2023-01-21T03:20:16.423Z,0
2023-01-21T03:21:16.601Z,0
2023-01-21T03:22:16.426Z,0
2023-01-21T03:23:16.474Z,0
2023-01-21T03:24:16.619Z,0
2023-01-21T03:25:16.202Z,0
2023-01-21T03:26:16.410Z,0
2023-01-21T03:27:16.446Z,0
2023-01-21T03:28:16.368Z,0
2023-01-21T03:29:16.450Z,0
2023-01-21T03:30:17.011Z,0
2023-01-21T03:31:16.306Z,0
2023-01-21T03:32:16.681Z,0
2023-01-21T03:33:16.812Z,0
2023-01-21T03:34:16.829Z,0
2023-01-21T03:35:16.693Z,0
2023-01-21T03:36:17.454Z,0
2023-01-21T03:37:16.461Z,0
2023-01-21T03:38:16.237Z,0
2023-01-21T03:39:16.490Z,0
2023-01-21T03:40:16.567Z,0
2023-01-21T03:41:16.899Z,0
2023-01-21T03:42:16.498Z,0
2023-01-21T03:43:16.542Z,0
2023-01-21T03:44:16.560Z,0
2023-01-21T03:45:16.633Z,0
2023-01-21T03:46:16.552Z,0
2023-01-21T03:47:16.772Z,0
2023-01-21T03:48:16.600Z,0.109
2023-01-21T03:49:16.360Z,0.109
2023-01-21T03:50:16.576Z,0
2023-01-21T03:51:16.258Z,0
2023-01-21T03:52:16.135Z,0
2023-01-21T03:53:16.284Z,0
2023-01-21T03:54:16.383Z,0
2023-01-21T03:55:16.465Z,0
2023-01-21T03:56:16.342Z,0
2023-01-21T03:57:16.577Z,0
2023-01-21T03:58:16.374Z,0
2023-01-21T03:59:16.438Z,0
2023-01-21T04:00:17.174Z,0
2023-01-21T04:01:16.576Z,0.219
2023-01-21T04:02:16.265Z,0
2023-01-21T04:03:16.439Z,0
2023-01-21T04:04:16.475Z,0
2023-01-21T04:05:16.624Z,0
2023-01-21T04:06:16.436Z,0
2023-01-21T04:07:16.259Z,0
2023-01-21T04:08:16.416Z,0
2023-01-21T04:09:16.770Z,0
2023-01-21T04:10:17.353Z,0.219
2023-01-21T04:11:16.594Z,0
2023-01-21T04:12:16.921Z,0
2023-01-21T04:13:16.690Z,0
2023-01-21T04:14:16.737Z,0
2023-01-21T04:15:16.565Z,0
2023-01-21T04:16:16.934Z,0.109
2023-01-21T04:17:16.731Z,0.219
2023-01-21T04:18:17.459Z,0
2023-01-21T04:19:17.036Z,0.109
2023-01-21T04:20:16.853Z,0
2023-01-21T04:21:16.599Z,0
2023-01-21T04:22:17.293Z,0
2023-01-21T04:23:16.950Z,0
2023-01-21T04:24:16.783Z,0
2023-01-21T04:25:16.945Z,0
2023-01-21T04:26:17.011Z,0.109
2023-01-21T04:27:16.749Z,0.109
2023-01-21T04:28:17.362Z,0
2023-01-21T04:29:16.654Z,0
2023-01-21T04:30:17.863Z,0
2023-01-21T04:31:16.809Z,0
2023-01-21T04:32:16.407Z,0
2023-01-21T04:33:16.713Z,0
2023-01-21T04:34:16.761Z,0
2023-01-21T04:35:17.386Z,0
2023-01-21T04:36:16.799Z,0
2023-01-21T04:37:17.114Z,0
2023-01-21T04:38:16.958Z,0
2023-01-21T04:39:16.593Z,0
2023-01-21T04:40:16.852Z,0
2023-01-21T04:41:16.529Z,0
2023-01-21T04:42:16.479Z,0
2023-01-21T04:43:16.651Z,0
2023-01-21T04:44:16.181Z,0
2023-01-21T04:45:16.430Z,0
2023-01-21T04:46:16.606Z,0
2023-01-21T04:47:15.589Z,0
2023-01-21T04:48:16.755Z,0
2023-01-21T04:49:16.304Z,0
2023-01-21T04:50:16.386Z,0
2023-01-21T04:51:16.766Z,0
2023-01-21T04:52:16.677Z,0
2023-01-21T04:53:16.445Z,0
2023-01-21T04:54:16.647Z,0
2023-01-21T04:55:16.943Z,0
2023-01-21T04:56:16.543Z,0
2023-01-21T04:57:16.123Z,0
2023-01-21T04:58:15.963Z,0
2023-01-21T04:59:16.915Z,0
2023-01-21T05:00:18.189Z,0
2023-01-21T05:01:16.221Z,0
2023-01-21T05:02:16.428Z,0
2023-01-21T05:03:16.879Z,0
2023-01-21T05:04:16.660Z,0
2023-01-21T05:05:16.691Z,0
2023-01-21T05:06:16.323Z,0.109
2023-01-21T05:07:16.169Z,0
2023-01-21T05:08:16.299Z,0
2023-01-21T05:09:16.211Z,0
2023-01-21T05:10:17.058Z,0
2023-01-21T05:11:16.201Z,0
2023-01-21T05:12:16.197Z,0
2023-01-21T05:13:16.222Z,0
2023-01-21T05:14:16.295Z,0
2023-01-21T05:15:16.611Z,0
2023-01-21T05:16:16.975Z,0
2023-01-21T05:17:16.846Z,0
2023-01-21T05:18:16.466Z,0
2023-01-21T05:19:16.739Z,0
2023-01-21T05:20:17.319Z,0
2023-01-21T05:21:16.593Z,0
2023-01-21T05:22:16.887Z,0
2023-01-21T05:23:16.904Z,0
2023-01-21T05:24:16.761Z,0
2023-01-21T05:25:17.040Z,0
2023-01-21T05:26:16.055Z,0
2023-01-21T05:27:16.753Z,0
2023-01-21T05:28:16.898Z,0
2023-01-21T05:29:16.872Z,0
2023-01-21T05:30:17.404Z,0.109
2023-01-21T05:31:16.656Z,0
2023-01-21T05:32:16.746Z,0
2023-01-21T05:33:16.923Z,0
2023-01-21T05:34:16.996Z,0
2023-01-21T05:35:16.549Z,0
2023-01-21T05:36:16.594Z,0
2023-01-21T05:37:16.381Z,0
2023-01-21T05:38:16.715Z,0
2023-01-21T05:39:16.818Z,0
2023-01-21T05:40:17.117Z,0
2023-01-21T05:41:16.346Z,0
2023-01-21T05:42:16.391Z,0
2023-01-21T05:43:16.939Z,0
2023-01-21T05:44:17.738Z,0
2023-01-21T05:45:17.127Z,0
2023-01-21T05:46:16.257Z,0
2023-01-21T05:47:16.585Z,0
2023-01-21T05:48:16.625Z,0
2023-01-21T05:49:16.582Z,0
2023-01-21T05:50:17.242Z,0
2023-01-21T05:51:16.684Z,0
2023-01-21T05:52:16.563Z,0
2023-01-21T05:53:17.062Z,0
2023-01-21T05:54:16.593Z,0
2023-01-21T05:55:16.761Z,0
2023-01-21T05:56:16.012Z,0
2023-01-21T05:57:16.214Z,0
2023-01-21T05:58:16.271Z,0
2023-01-21T05:59:16.301Z,0.109
2023-01-21T06:00:17.749Z,0
2023-01-21T06:01:16.922Z,0
2023-01-21T06:02:16.854Z,0
2023-01-21T06:03:16.988Z,0
2023-01-21T06:04:16.361Z,0
2023-01-21T06:05:16.903Z,0
2023-01-21T06:06:16.928Z,0
2023-01-21T06:07:16.919Z,0
2023-01-21T06:08:16.993Z,0
2023-01-21T06:09:16.937Z,0
2023-01-21T06:10:17.345Z,0
2023-01-21T06:11:16.531Z,0
2023-01-21T06:12:16.697Z,0
2023-01-21T06:13:16.681Z,0
2023-01-21T06:14:17.067Z,0
2023-01-21T06:15:16.977Z,0
2023-01-21T06:16:16.089Z,0
2023-01-21T06:17:16.674Z,0
2023-01-21T06:18:16.542Z,0
2023-01-21T06:19:16.985Z,0
2023-01-21T06:20:16.692Z,0
2023-01-21T06:21:16.407Z,0
2023-01-21T06:23:21.370Z,0
2023-01-21T06:24:16.572Z,0
2023-01-21T06:25:17.138Z,0
2023-01-21T06:26:16.140Z,0.109
2023-01-21T06:27:16.348Z,0
2023-01-21T06:28:16.872Z,0
2023-01-21T06:29:16.276Z,0
2023-01-21T06:30:17.238Z,0
2023-01-21T06:31:16.689Z,0
2023-01-21T06:32:16.644Z,0
2023-01-21T06:33:16.634Z,0
2023-01-21T06:34:17.071Z,0
2023-01-21T06:35:16.685Z,0
2023-01-21T06:36:16.803Z,0
2023-01-21T06:37:17.126Z,0
2023-01-21T06:38:16.080Z,0
2023-01-21T06:39:16.658Z,0
2023-01-21T06:40:17.426Z,0.109
2023-01-21T06:41:16.741Z,0
2023-01-21T06:42:17.130Z,0
2023-01-21T06:43:16.478Z,0
2023-01-21T06:44:16.882Z,0
2023-01-21T06:45:17.247Z,0
2023-01-21T06:46:16.804Z,0
2023-01-21T06:47:16.696Z,0
2023-01-21T06:48:17.073Z,13600
2023-01-21T06:49:16.543Z,13600
2023-01-21T06:50:17.192Z,13600
2023-01-21T06:51:16.844Z,13600
2023-01-21T06:52:16.158Z,13600
2023-01-21T06:53:16.453Z,13600
2023-01-21T06:54:16.468Z,0
2023-01-21T06:55:16.507Z,13600
2023-01-21T06:56:16.781Z,0
2023-01-21T06:57:16.871Z,13600
2023-01-21T06:58:16.881Z,0
2023-01-21T06:59:16.171Z,0
2023-01-21T07:00:17.614Z,0
2023-01-21T07:01:16.933Z,0
2023-01-21T07:02:16.337Z,0.389
2023-01-21T07:03:16.924Z,0.680
2023-01-21T07:04:16.290Z,0.200
2023-01-21T07:05:17.596Z,0.449
2023-01-21T07:06:16.432Z,0.819
2023-01-21T07:07:16.862Z,1.360
2023-01-21T07:08:16.492Z,1.509
2023-01-21T07:09:17.080Z,1.399
2023-01-21T07:10:16.917Z,2.119
2023-01-21T07:11:16.519Z,3.109
2023-01-21T07:12:16.218Z,2.75
2023-01-21T07:13:16.550Z,3.509
2023-01-21T07:14:17.128Z,4.639
2023-01-21T07:15:17.167Z,4.719
2023-01-21T07:16:16.809Z,5.929
2023-01-21T07:17:16.411Z,6.380
2023-01-21T07:18:16.849Z,7.530
2023-01-21T07:19:16.496Z,8.25
2023-01-21T07:20:16.974Z,9.25
2023-01-21T07:21:16.479Z,10.38
2023-01-21T07:22:16.781Z,11.57
2023-01-21T07:23:17.010Z,12.68
2023-01-21T07:24:16.308Z,14.19
2023-01-21T07:25:17.103Z,15.09
2023-01-21T07:26:16.309Z,16.88
2023-01-21T07:27:16.832Z,18.62
2023-01-21T07:28:16.765Z,19.70
2023-01-21T07:29:16.535Z,21.71
2023-01-21T07:30:17.273Z,23.29
2023-01-21T07:31:17.270Z,25.29
2023-01-21T07:32:16.823Z,27.20
2023-01-21T07:33:16.064Z,29.29
2023-01-21T07:34:16.331Z,31.5
2023-01-21T07:35:17.125Z,33.70
2023-01-21T07:36:16.893Z,36.20
2023-01-21T07:37:16.454Z,38.70
2023-01-21T07:38:16.911Z,41.29
2023-01-21T07:39:17.114Z,44.09
2023-01-21T07:40:16.811Z,47
2023-01-21T07:41:16.619Z,50
2023-01-21T07:42:16.798Z,52.90
2023-01-21T07:43:17.104Z,55.79
2023-01-21T07:44:16.457Z,58.52
2023-01-21T07:45:17.493Z,61.54
2023-01-21T07:46:16.618Z,64.73
2023-01-21T07:47:17.142Z,67.80
2023-01-21T07:48:16.411Z,71.19
2023-01-21T07:49:16.901Z,74.69
2023-01-21T07:50:16.808Z,78.30
2023-01-21T07:51:17.060Z,81.75
2023-01-21T07:52:16.925Z,85.09
2023-01-21T07:53:16.189Z,88.59
2023-01-21T07:54:16.469Z,92.09
2023-01-21T07:55:17.462Z,95.80
2023-01-21T07:56:16.067Z,99.09
2023-01-21T07:58:17.139Z,106.0
2023-01-21T07:59:16.780Z,109.0
2023-01-21T08:00:17.189Z,112
2023-01-21T08:01:17.404Z,115.5
2023-01-21T08:02:17.265Z,118.5
2023-01-21T08:03:17.019Z,121.5
2023-01-21T08:04:16.661Z,125.1
2023-01-21T08:05:17.045Z,128.6
2023-01-21T08:06:16.800Z,131.3
2023-01-21T08:07:16.623Z,134.3
2023-01-21T08:08:16.548Z,137.2
2023-01-21T08:09:17.180Z,140.3
2023-01-21T08:10:16.579Z,143.6
2023-01-21T08:11:16.712Z,147.6
2023-01-21T08:12:16.497Z,150.8
2023-01-21T08:13:16.684Z,154.3
2023-01-21T08:14:17.146Z,157.3
2023-01-21T08:15:17.250Z,160.6
2023-01-21T08:16:17.032Z,163.6
2023-01-21T08:17:17.356Z,167.0
2023-01-21T08:18:16.951Z,170.3
2023-01-21T08:19:16.604Z,173.1
2023-01-21T08:20:17.096Z,178
2023-01-21T08:21:16.238Z,183.6
2023-01-21T08:22:17.082Z,195
2023-01-21T08:23:16.477Z,208
2023-01-21T08:24:17.016Z,220
2023-01-21T08:25:16.990Z,235
2023-01-21T08:26:16.664Z,243
2023-01-21T08:27:17.187Z,253
2023-01-21T08:28:16.978Z,263.7
2023-01-21T08:29:16.932Z,268.2
2023-01-21T08:30:16.869Z,269
2023-01-21T08:31:16.697Z,258
2023-01-21T08:32:16.653Z,255
2023-01-21T08:33:16.640Z,264
2023-01-21T08:34:16.975Z,267
2023-01-21T08:35:17.523Z,266.6
2023-01-21T08:36:16.624Z,263.2
2023-01-21T08:37:16.754Z,258.7
2023-01-21T08:38:16.453Z,253.8
2023-01-21T08:39:17.464Z,251.6
2023-01-21T08:40:16.770Z,251.9
2023-01-21T08:41:16.679Z,254.5
2023-01-21T08:42:17.056Z,257.7
2023-01-21T08:43:16.777Z,264.1
2023-01-21T08:44:16.610Z,268.2
2023-01-21T08:45:18.068Z,277
2023-01-21T08:46:16.845Z,284.1
2023-01-21T08:47:17.302Z,277
2023-01-21T08:48:16.787Z,272.7
2023-01-21T08:49:17.578Z,277.7
2023-01-21T08:50:16.795Z,281.2
2023-01-21T08:51:17.032Z,288
2023-01-21T08:52:17.309Z,293.5
2023-01-21T08:53:17.064Z,299
2023-01-21T08:54:16.519Z,299.7
2023-01-21T08:55:17.433Z,312
2023-01-21T08:56:16.382Z,324.2
2023-01-21T08:57:16.732Z,329.4
2023-01-21T08:58:16.701Z,330.3
2023-01-21T08:59:16.747Z,333.2
2023-01-21T09:00:17.611Z,340
2023-01-21T09:01:17.020Z,354
2023-01-21T09:02:24.602Z,361.2
2023-01-21T09:03:17.288Z,360.7
2023-01-21T09:04:24.979Z,365.6
2023-01-21T09:05:17.150Z,371.3
2023-01-21T09:06:16.994Z,382
2023-01-21T09:07:16.430Z,390.6
2023-01-21T09:08:30.663Z,394.7
2023-01-21T09:09:16.965Z,391.8
2023-01-21T09:10:16.398Z,396.7
2023-01-21T09:11:16.838Z,398
2023-01-21T09:12:17.181Z,403.5
2023-01-21T09:13:17.211Z,401
2023-01-21T09:14:16.784Z,409.5
2023-01-21T09:15:16.686Z,416
2023-01-21T09:16:17.179Z,423.2
2023-01-21T09:17:17.099Z,425.6
2023-01-21T09:18:16.622Z,426.2
2023-01-21T09:19:16.587Z,434.1
2023-01-21T09:20:17.078Z,437.2
2023-01-21T09:21:17.099Z,437.7
2023-01-21T09:22:16.663Z,439.7
2023-01-21T09:23:17.210Z,442.7
2023-01-21T09:24:16.576Z,442
2023-01-21T09:25:17.594Z,456
2023-01-21T09:26:17.263Z,463.8
2023-01-21T09:27:17.115Z,464
2023-01-21T09:28:16.748Z,475
2023-01-21T09:29:16.930Z,477.1
2023-01-21T09:30:16.854Z,477.7
2023-01-21T09:31:16.735Z,480.2
2023-01-21T09:32:16.696Z,483.3
2023-01-21T09:33:17.359Z,487.1
2023-01-21T09:34:16.658Z,491.8
2023-01-21T09:35:17.811Z,496.5
2023-01-21T09:36:16.682Z,504.2
2023-01-21T09:37:17.174Z,508.2
2023-01-21T09:38:16.921Z,509
2023-01-21T09:39:17.124Z,514.2
2023-01-21T09:40:16.834Z,517.2
2023-01-21T09:41:16.294Z,518.5
2023-01-21T09:42:17.018Z,520.4
2023-01-21T09:43:16.349Z,526.7
2023-01-21T09:44:16.241Z,531.7
2023-01-21T09:45:17.710Z,530.7
2023-01-21T09:46:16.652Z,524.5
2023-01-21T09:47:16.120Z,532
2023-01-21T09:48:16.171Z,546
2023-01-21T09:49:16.441Z,550.2
2023-01-21T09:50:17.498Z,558
2023-01-21T09:51:17.149Z,567.5
2023-01-21T09:52:16.758Z,574
2023-01-21T09:53:16.660Z,576.2
2023-01-21T09:54:16.891Z,583
2023-01-21T09:55:17.521Z,595.9
2023-01-21T09:56:16.904Z,606
2023-01-21T09:57:16.975Z,626.5
2023-01-21T09:58:16.811Z,590
2023-01-21T09:59:16.782Z,530
2023-01-21T10:00:17.279Z,488
2023-01-21T10:01:17.130Z,490
2023-01-21T10:02:16.694Z,500
2023-01-21T10:03:16.384Z,530
2023-01-21T10:04:17.322Z,567
2023-01-21T10:05:17.493Z,550
2023-01-21T10:06:17.592Z,520
2023-01-21T10:07:16.891Z,489
2023-01-21T10:08:17.039Z,486
2023-01-21T10:09:16.756Z,483
2023-01-21T10:10:16.862Z,496
2023-01-21T10:11:16.871Z,516
2023-01-21T10:12:16.875Z,480
2023-01-21T10:13:16.794Z,452.2
2023-01-21T10:14:16.767Z,446.7
2023-01-21T10:15:16.776Z,445.3
2023-01-21T10:16:16.718Z,446.4
2023-01-21T10:17:17.008Z,439.6
2023-01-21T10:18:16.651Z,437.6
2023-01-21T10:19:16.981Z,442.7
2023-01-21T10:20:17.208Z,444.1
2023-01-21T10:21:16.866Z,444.5
2023-01-21T10:22:16.696Z,449.8
2023-01-21T10:23:16.786Z,459
2023-01-21T10:24:17.231Z,459
2023-01-21T10:25:17.123Z,430
2023-01-21T10:26:16.959Z,420.8
2023-01-21T10:27:16.687Z,428.2
2023-01-21T10:28:17.257Z,435.3
2023-01-21T10:29:16.998Z,438.7
2023-01-21T10:30:17.060Z,454
2023-01-21T10:31:17.095Z,487
2023-01-21T10:32:16.829Z,492.8
2023-01-21T10:33:16.904Z,510
2023-01-21T10:34:16.723Z,542
2023-01-21T10:35:17.238Z,561
2023-01-21T10:36:17.013Z,583
2023-01-21T10:37:16.833Z,602
2023-01-21T10:38:16.404Z,611.4
2023-01-21T10:39:17.107Z,605.2
2023-01-21T10:40:16.920Z,598
2023-01-21T10:41:16.519Z,579.5
2023-01-21T10:42:17.020Z,560
2023-01-21T10:43:16.736Z,500
2023-01-21T10:44:17.178Z,450
2023-01-21T10:45:18.014Z,424
2023-01-21T10:46:17.341Z,405
2023-01-21T10:47:16.768Z,370
2023-01-21T10:48:17.322Z,347
2023-01-21T10:49:16.582Z,343
2023-01-21T10:50:17.211Z,380
2023-01-21T10:51:17.044Z,418
2023-01-21T10:52:17.073Z,422.1
2023-01-21T10:53:16.496Z,419.7
2023-01-21T10:54:17.434Z,408
2023-01-21T10:55:17.389Z,388
2023-01-21T10:56:17.193Z,374.3
2023-01-21T10:57:17.371Z,377
2023-01-21T10:58:17.284Z,386.6
2023-01-21T10:59:17.165Z,392
2023-01-21T11:00:17.786Z,404
2023-01-21T11:01:16.803Z,412
2023-01-21T11:02:17.450Z,411.1
2023-01-21T11:03:17.296Z,402.7
2023-01-21T11:04:17.022Z,394.6
2023-01-21T11:05:17.224Z,391.6
2023-01-21T11:06:17.110Z,391.6
2023-01-21T11:07:17.114Z,384
2023-01-21T11:08:16.782Z,373
2023-01-21T11:09:16.915Z,362.7
2023-01-21T11:10:16.743Z,356.1
2023-01-21T11:11:16.679Z,352.9
2023-01-21T11:12:17.263Z,350.3
2023-01-21T11:13:17.136Z,346.7
2023-01-21T11:14:16.717Z,342.1
2023-01-21T11:15:21.920Z,336.6
2023-01-21T11:16:17.205Z,332.6
2023-01-21T11:17:16.921Z,332.7
2023-01-21T11:18:17.055Z,328.1
2023-01-21T11:19:17.234Z,325.6
2023-01-21T11:20:16.924Z,325.0
2023-01-21T11:21:21.575Z,324.1
2023-01-21T11:22:16.962Z,324.3
2023-01-21T11:23:16.687Z,327.2
2023-01-21T11:24:16.751Z,326.9
2023-01-21T11:25:17.884Z,324.9
2023-01-21T11:26:16.848Z,327.1
2023-01-21T11:27:17.117Z,332.3
2023-01-21T11:28:17.059Z,334.5
2023-01-21T11:29:16.845Z,339
2023-01-21T11:30:37.296Z,342.5
2023-01-21T11:31:16.844Z,343.3
2023-01-21T11:32:16.942Z,341.1
2023-01-21T11:33:16.669Z,332
2023-01-21T11:34:17.153Z,319
2023-01-21T11:35:17.125Z,305
2023-01-21T11:36:17.102Z,288
2023-01-21T11:37:17.319Z,275
2023-01-21T11:38:16.692Z,264
2023-01-21T11:39:17.492Z,253.3
2023-01-21T11:40:20.303Z,257
2023-01-21T11:41:17.340Z,274
2023-01-21T11:42:16.887Z,287.5
2023-01-21T11:43:16.776Z,292.1
2023-01-21T11:44:17.408Z,294.1
2023-01-21T11:45:17.593Z,289
2023-01-21T11:46:17.358Z,275
2023-01-21T11:47:16.807Z,257
2023-01-21T11:48:17.368Z,248.1
2023-01-21T11:49:35.969Z,250.5
2023-01-21T11:50:17.240Z,252.0
2023-01-21T11:51:17.001Z,254
2023-01-21T11:52:16.811Z,253.6
2023-01-21T11:53:17.359Z,245.3
2023-01-21T11:54:17.401Z,244.5
2023-01-21T11:55:17.284Z,249.1
2023-01-21T11:56:16.905Z,253.5
2023-01-21T11:57:16.963Z,255.8
2023-01-21T11:58:16.722Z,255.5
2023-01-21T11:59:17.373Z,252.1
2023-01-21T12:00:18.361Z,248.1
2023-01-21T12:01:38.635Z,249.6
2023-01-21T12:02:16.921Z,254.6
2023-01-21T12:03:17.140Z,258.1
2023-01-21T12:04:17.157Z,261.7
2023-01-21T12:05:17.485Z,263.0
2023-01-21T12:06:17.608Z,264.0
2023-01-21T12:07:17.485Z,262.5
2023-01-21T12:08:16.660Z,259.6
2023-01-21T12:09:17.484Z,254.6
2023-01-21T12:10:17.389Z,252.6
2023-01-21T12:11:17.238Z,252.7
2023-01-21T12:12:17.154Z,256.5
2023-01-21T12:13:16.673Z,264.5
2023-01-21T12:14:17.193Z,276
2023-01-21T12:15:17.016Z,285.3
2023-01-21T12:16:16.790Z,290.6
2023-01-21T12:17:16.860Z,294.5
2023-01-21T12:18:17.698Z,298.6
2023-01-21T12:19:16.311Z,298.0
2023-01-21T12:20:17.213Z,294.7
2023-01-21T12:21:16.856Z,292.3
2023-01-21T12:22:16.658Z,294.2
2023-01-21T12:23:16.831Z,295.7
2023-01-21T12:24:16.584Z,302.2
2023-01-21T12:25:17.253Z,306.6
2023-01-21T12:26:16.771Z,308.6
2023-01-21T12:27:16.693Z,313.1
2023-01-21T12:28:16.641Z,312.9
2023-01-21T12:29:18.572Z,313.8
2023-01-21T12:30:16.870Z,318.1
2023-01-21T12:31:16.986Z,318.5
2023-01-21T12:32:16.965Z,317.1
2023-01-21T12:33:17.342Z,324
2023-01-21T12:34:17.120Z,336.6
2023-01-21T12:35:17.257Z,342.2
2023-01-21T12:36:17.211Z,345.6
2023-01-21T12:37:17.359Z,348.0
2023-01-21T12:38:17.078Z,345.6
2023-01-21T12:39:17.118Z,341.7
2023-01-21T12:40:17.779Z,342.8
2023-01-21T12:41:17.066Z,343.3
2023-01-21T12:42:17.086Z,341.1
2023-01-21T12:43:16.951Z,342.1
2023-01-21T12:44:16.832Z,340.3
2023-01-21T12:45:17.220Z,338.8
2023-01-21T12:46:17.015Z,340.2
2023-01-21T12:47:17.006Z,340.8
2023-01-21T12:48:16.717Z,343.2
2023-01-21T12:49:16.960Z,340.7
2023-01-21T12:50:16.741Z,334.3
2023-01-21T12:51:16.859Z,331.4
2023-01-21T12:52:16.709Z,330.6
2023-01-21T12:53:16.902Z,329.7
2023-01-21T12:54:16.580Z,330
2023-01-21T12:55:17.702Z,333.8
2023-01-21T12:56:16.273Z,340.2
2023-01-21T12:57:17.046Z,344.5
2023-01-21T12:58:16.600Z,343.8
2023-01-21T12:59:16.814Z,344.8
2023-01-21T13:00:17.892Z,347.3
2023-01-21T13:01:17.129Z,343.5
2023-01-21T13:02:16.895Z,339
2023-01-21T13:03:16.898Z,338.1
2023-01-21T13:04:16.826Z,338.6
2023-01-21T13:05:17.808Z,335.2
2023-01-21T13:06:16.519Z,332.1
2023-01-21T13:07:17.063Z,326.1
2023-01-21T13:08:16.727Z,326.8
2023-01-21T13:09:16.766Z,330.3
2023-01-21T13:10:17.487Z,324.2
2023-01-21T13:11:17.033Z,315.1
2023-01-21T13:12:16.956Z,307.2
2023-01-21T13:13:16.840Z,301
2023-01-21T13:14:16.929Z,292.3
2023-01-21T13:15:17.443Z,284.7
2023-01-21T13:16:17.116Z,277.1
2023-01-21T13:17:17.300Z,268.2
2023-01-21T13:18:16.931Z,266.6
2023-01-21T13:19:16.902Z,268.3
2023-01-21T13:20:16.970Z,270.1
2023-01-21T13:21:16.875Z,273.7
2023-01-21T13:22:17.075Z,283
2023-01-21T13:23:16.887Z,296
2023-01-21T13:24:16.800Z,303
2023-01-21T13:25:16.778Z,301.3
2023-01-21T13:26:17.480Z,300.2
2023-01-21T13:27:17.008Z,293
2023-01-21T13:28:17.112Z,279
2023-01-21T13:29:16.741Z,266
2023-01-21T13:30:17.601Z,257.6
2023-01-21T13:31:17.028Z,251.1
2023-01-21T13:32:16.411Z,243.1
2023-01-21T13:33:16.715Z,233
2023-01-21T13:34:17.421Z,216
2023-01-21T13:35:17.485Z,198
2023-01-21T13:36:16.541Z,191.3
2023-01-21T13:37:17.377Z,190.6
2023-01-21T13:38:17.077Z,192
2023-01-21T13:39:17.001Z,200
2023-01-21T13:40:17.287Z,215
2023-01-21T13:41:16.961Z,230
2023-01-21T13:42:16.737Z,237.3
2023-01-21T13:43:17.201Z,241.5